Time;durP1;ratioP1;P1;durP2;ratioP2;P2;SDS_P1;SDS_P2;PMS_P1;PMS_P2;Temp;Humidity;BMP_temperature;BMP_pressure;BME280_temperature;BME280_humidity;BME280_pressure;Samples;Min_cycle;Max_cycle;Signal;HPM_P1;HPM_P2
2023/12/04 00:00:04;;;;;;;3.30;2.50;;;19.00;37.70;;;;;;5062084;28;20814;-66
2023/12/04 00:02:30;;;;;;;2.43;2.33;;;19.00;37.70;;;;;;5049129;28;20221;-67
2023/12/04 00:04:56;;;;;;;2.60;2.40;;;19.00;37.70;;;;;;5048320;28;21235;-66
2023/12/04 00:07:21;;;;;;;2.47;2.37;;;19.00;37.70;;;;;;5063934;28;20304;-67
2023/12/04 00:09:47;;;;;;;3.03;2.40;;;19.00;37.70;;;;;;5060375;28;20320;-66
2023/12/04 00:12:12;;;;;;;2.50;2.40;;;19.00;37.70;;;;;;5053713;28;20213;-67
2023/12/04 00:14:38;;;;;;;3.13;2.93;;;19.00;37.70;;;;;;5053298;28;20390;-67
2023/12/04 00:17:04;;;;;;;3.23;3.03;;;19.00;37.70;;;;;;5051916;28;20229;-66
2023/12/04 00:19:29;;;;;;;2.27;2.17;;;19.00;37.60;;;;;;5049499;28;20230;-67
2023/12/04 00:21:55;;;;;;;2.40;2.20;;;19.00;37.70;;;;;;5049326;28;20220;-67
2023/12/04 00:24:20;;;;;;;2.77;2.57;;;19.00;37.70;;;;;;5066912;28;20244;-68
2023/12/04 00:26:46;;;;;;;2.63;2.47;;;19.00;37.70;;;;;;5063537;28;20294;-67
2023/12/04 00:29:12;;;;;;;2.10;2.00;;;19.00;37.70;;;;;;5058450;28;20217;-66
2023/12/04 00:31:37;;;;;;;4.80;2.97;;;19.00;37.70;;;;;;5048994;28;20283;-66
2023/12/04 00:34:03;;;;;;;3.10;2.80;;;19.00;37.70;;;;;;5037513;28;20952;-66
2023/12/04 00:36:28;;;;;;;2.63;2.43;;;19.00;37.70;;;;;;5064860;28;20264;-67
2023/12/04 00:38:54;;;;;;;2.90;2.70;;;19.00;37.70;;;;;;5067343;28;20470;-67
2023/12/04 00:41:20;;;;;;;3.10;2.90;;;19.00;37.60;;;;;;5068103;28;20561;-67
2023/12/04 00:43:45;;;;;;;2.50;2.40;;;19.00;37.70;;;;;;5056393;28;20217;-67
2023/12/04 00:46:11;;;;;;;3.00;2.80;;;18.90;37.60;;;;;;5051116;28;20241;-67
2023/12/04 00:48:36;;;;;;;2.63;2.50;;;19.00;37.70;;;;;;5055079;28;20231;-67
2023/12/04 00:51:02;;;;;;;2.53;2.33;;;18.90;37.60;;;;;;5060192;28;20269;-66
2023/12/04 00:53:27;;;;;;;3.10;2.67;;;18.90;37.60;;;;;;5046693;28;20251;-67
2023/12/04 00:55:53;;;;;;;2.33;2.23;;;19.00;37.70;;;;;;5052906;28;20244;-67
2023/12/04 00:58:19;;;;;;;2.67;2.47;;;19.00;37.70;;;;;;5064600;28;20224;-67
2023/12/04 01:00:44;;;;;;;2.60;2.40;;;18.90;37.50;;;;;;5035614;28;20239;-67
2023/12/04 01:03:10;;;;;;;2.60;2.40;;;19.00;37.60;;;;;;5046207;28;20217;-67
2023/12/04 01:05:35;;;;;;;2.97;2.77;;;18.90;37.60;;;;;;5063953;28;20233;-67
2023/12/04 01:08:01;;;;;;;2.10;2.00;;;19.00;38.40;;;;;;5060215;28;20243;-66
2023/12/04 01:10:26;;;;;;;2.30;2.20;;;19.00;37.70;;;;;;5049393;28;20222;-67
2023/12/04 01:12:52;;;;;;;3.00;2.40;;;18.90;37.60;;;;;;5047543;28;20225;-67
2023/12/04 01:15:17;;;;;;;2.33;2.00;;;18.90;37.60;;;;;;5053048;28;20239;-66
2023/12/04 01:17:43;;;;;;;2.70;2.30;;;19.00;37.70;;;;;;5051095;28;20221;-67
2023/12/04 01:20:09;;;;;;;2.53;2.33;;;18.90;37.70;;;;;;5029997;28;20221;-67
2023/12/04 01:22:35;;;;;;;2.63;2.43;;;18.90;37.60;;;;;;5030023;28;20225;-67
2023/12/04 01:25:00;;;;;;;2.63;2.47;;;18.90;37.60;;;;;;5054503;28;20544;-67
2023/12/04 01:27:26;;;;;;;3.57;2.90;;;18.90;37.60;;;;;;5057729;28;20308;-66
2023/12/04 01:29:52;;;;;;;2.13;2.03;;;18.90;37.60;;;;;;5059069;28;20668;-67
2023/12/04 01:32:17;;;;;;;2.53;2.40;;;18.90;37.60;;;;;;5061461;28;20216;-67
2023/12/04 01:34:42;;;;;;;2.50;2.30;;;18.90;37.50;;;;;;5060319;28;20240;-67
2023/12/04 01:37:08;;;;;;;2.33;2.23;;;18.90;37.60;;;;;;5053714;28;20233;-67
2023/12/04 01:39:34;;;;;;;2.60;2.40;;;19.00;37.70;;;;;;5050530;28;20561;-66
2023/12/04 01:42:00;;;;;;;2.73;2.53;;;18.90;37.50;;;;;;5042914;28;20474;-67
2023/12/04 01:44:26;;;;;;;2.20;2.10;;;18.90;37.50;;;;;;5068266;28;20224;-67
2023/12/04 01:46:52;;;;;;;2.10;2.00;;;18.90;37.50;;;;;;5058903;28;20282;-67
2023/12/04 01:49:17;;;;;;;3.97;2.20;;;18.90;37.50;;;;;;5057554;28;20434;-67
2023/12/04 01:51:44;;;;;;;2.20;2.10;;;18.90;37.50;;;;;;5061838;28;20348;-67
2023/12/04 01:54:10;;;;;;;2.60;2.50;;;18.90;37.50;;;;;;5052771;28;20219;-67
2023/12/04 01:56:37;;;;;;;2.80;2.60;;;18.90;38.20;;;;;;5063750;28;20478;-67
2023/12/04 01:59:03;;;;;;;2.37;2.27;;;18.90;37.50;;;;;;5074230;28;20472;-67
2023/12/04 02:01:30;;;;;;;2.40;2.20;;;18.90;37.50;;;;;;5068544;28;20553;-66
2023/12/04 02:03:57;;;;;;;2.37;2.27;;;18.90;37.50;;;;;;5068189;28;20473;-68
2023/12/04 02:06:25;;;;;;;2.53;2.33;;;18.90;37.50;;;;;;5051767;28;20452;-67
2023/12/04 02:08:50;;;;;;;2.47;2.37;;;18.90;37.50;;;;;;5063811;28;20436;-67
2023/12/04 02:11:16;;;;;;;2.20;2.10;;;18.90;37.50;;;;;;5062177;28;20948;-66
2023/12/04 02:13:42;;;;;;;2.67;2.47;;;18.90;37.50;;;;;;5063985;28;20348;-67
2023/12/04 02:16:10;;;;;;;2.60;2.40;;;18.90;37.50;;;;;;5070361;28;20306;-67
2023/12/04 02:18:36;;;;;;;2.20;2.10;;;18.90;37.50;;;;;;5072071;28;20633;-67
2023/12/04 02:21:02;;;;;;;2.27;2.17;;;18.90;37.50;;;;;;5068941;28;20438;-67
2023/12/04 02:23:28;;;;;;;2.67;2.47;;;18.90;37.50;;;;;;5066910;28;20969;-67
2023/12/04 02:26:00;;;;;;;2.57;2.20;;;18.90;37.50;;;;;;5043588;28;20287;-68
2023/12/04 02:28:32;;;;;;;2.10;2.00;;;18.90;37.50;;;;;;5045311;28;20498;-67
2023/12/04 02:30:59;;;;;;;2.47;2.07;;;18.90;37.50;;;;;;5048167;28;20422;-67
2023/12/04 02:33:26;;;;;;;2.57;2.47;;;18.90;37.50;;;;;;5057334;28;20495;-67
2023/12/04 02:35:53;;;;;;;2.50;2.30;;;18.90;37.90;;;;;;5035715;28;20964;-67
2023/12/04 02:38:19;;;;;;;2.33;2.23;;;18.90;37.50;;;;;;5051899;28;20433;-67
2023/12/04 02:40:45;;;;;;;2.20;2.10;;;18.90;37.50;;;;;;5039083;28;20440;-68
2023/12/04 02:43:10;;;;;;;2.20;2.10;;;18.90;37.50;;;;;;5033856;28;20312;-67
2023/12/04 02:45:36;;;;;;;6.03;2.30;;;18.90;37.50;;;;;;5055351;28;20445;-67
2023/12/04 02:48:01;;;;;;;2.50;2.30;;;18.90;37.50;;;;;;5057872;28;20217;-67
2023/12/04 02:50:27;;;;;;;3.00;2.30;;;18.90;37.50;;;;;;5055672;28;20653;-67
2023/12/04 02:52:53;;;;;;;2.37;2.27;;;18.90;37.50;;;;;;5049433;28;20341;-67
2023/12/04 02:55:18;;;;;;;2.20;2.10;;;18.90;37.50;;;;;;5048101;28;20233;-67
2023/12/04 02:57:44;;;;;;;2.10;2.00;;;18.90;37.50;;;;;;5054566;28;20895;-67
2023/12/04 03:00:10;;;;;;;2.17;2.07;;;18.90;37.40;;;;;;5066228;28;20228;-66
2023/12/04 03:02:36;;;;;;;2.33;2.23;;;18.90;37.50;;;;;;5048474;28;20228;-67
2023/12/04 03:05:01;;;;;;;2.43;2.33;;;18.90;37.50;;;;;;5071392;28;20450;-67
2023/12/04 03:07:27;;;;;;;2.37;2.17;;;18.90;37.50;;;;;;5068083;28;20225;-67
2023/12/04 03:09:52;;;;;;;2.27;2.17;;;18.90;37.50;;;;;;5059731;28;20233;-67
2023/12/04 03:12:18;;;;;;;2.30;2.20;;;18.90;37.50;;;;;;5049958;28;20300;-66
2023/12/04 03:14:44;;;;;;;4.70;2.17;;;18.90;37.50;;;;;;5051981;28;20259;-67
2023/12/04 03:17:10;;;;;;;2.20;2.10;;;18.90;37.50;;;;;;5061531;28;20335;-67
2023/12/04 03:19:35;;;;;;;2.03;1.93;;;18.90;37.50;;;;;;5048209;28;20304;-67
2023/12/04 03:22:01;;;;;;;3.13;2.37;;;18.90;37.50;;;;;;5049372;28;20253;-68
2023/12/04 03:24:27;;;;;;;2.00;1.90;;;18.90;37.50;;;;;;5055412;28;20801;-67
2023/12/04 03:26:52;;;;;;;2.70;2.20;;;18.90;37.50;;;;;;5050960;28;21310;-67
2023/12/04 03:29:18;;;;;;;2.23;2.10;;;18.90;37.50;;;;;;5058793;28;21053;-68
2023/12/04 03:31:43;;;;;;;2.37;2.27;;;18.90;37.50;;;;;;5048834;28;20640;-67
2023/12/04 03:34:09;;;;;;;2.00;1.90;;;18.90;37.50;;;;;;5051889;28;21751;-67
2023/12/04 03:36:35;;;;;;;2.03;1.90;;;18.90;37.50;;;;;;5052998;28;20638;-67
2023/12/04 03:39:00;;;;;;;2.20;2.10;;;18.80;38.00;;;;;;5062290;28;20749;-67
2023/12/04 03:41:26;;;;;;;2.67;2.00;;;18.80;37.40;;;;;;5047140;28;20761;-67
2023/12/04 03:43:51;;;;;;;2.30;2.10;;;18.90;37.40;;;;;;5063936;28;20232;-68
2023/12/04 03:46:17;;;;;;;2.40;2.30;;;18.80;37.40;;;;;;5049242;28;20234;-68
2023/12/04 03:48:42;;;;;;;2.10;2.00;;;18.90;37.50;;;;;;5066309;28;20337;-67
2023/12/04 03:51:08;;;;;;;2.27;2.17;;;18.80;37.40;;;;;;5066464;28;20236;-67
2023/12/04 03:53:34;;;;;;;2.23;2.13;;;18.90;37.50;;;;;;5061331;28;20232;-67
2023/12/04 03:55:59;;;;;;;2.00;1.90;;;18.80;37.40;;;;;;5056511;28;20642;-67
2023/12/04 03:58:25;;;;;;;1.73;1.63;;;18.80;37.40;;;;;;5056369;28;22483;-67
2023/12/04 04:00:51;;;;;;;2.20;2.10;;;18.80;37.40;;;;;;5043963;28;20599;-67
2023/12/04 04:03:16;;;;;;;2.30;2.20;;;18.80;37.40;;;;;;5047854;28;20226;-67
2023/12/04 04:05:42;;;;;;;1.90;1.80;;;18.80;37.40;;;;;;5054907;28;20268;-67
2023/12/04 04:08:07;;;;;;;2.10;2.00;;;18.80;37.40;;;;;;5047141;28;20228;-66
2023/12/04 04:10:34;;;;;;;2.00;1.90;;;18.80;37.30;;;;;;5045965;28;20691;-66
2023/12/04 04:12:59;;;;;;;2.23;2.13;;;18.80;37.30;;;;;;5055784;28;20342;-67
2023/12/04 04:15:26;;;;;;;2.07;1.87;;;18.80;37.30;;;;;;5019940;28;20550;-67
2023/12/04 04:17:52;;;;;;;2.57;2.37;;;18.80;37.30;;;;;;5052331;28;20222;-67
2023/12/04 04:20:17;;;;;;;2.10;2.00;;;18.80;37.30;;;;;;5064147;28;20855;-66
2023/12/04 04:22:43;;;;;;;1.90;1.63;;;18.80;37.30;;;;;;5046954;28;20217;-66
2023/12/04 04:25:09;;;;;;;4.03;1.90;;;18.80;37.30;;;;;;5044320;28;20645;-66
2023/12/04 04:27:35;;;;;;;2.57;2.37;;;18.80;37.30;;;;;;5049407;28;20217;-66
2023/12/04 04:30:02;;;;;;;2.07;1.97;;;18.80;37.30;;;;;;5051628;28;21015;-66
2023/12/04 04:32:28;;;;;;;2.63;2.00;;;18.80;37.40;;;;;;5057714;28;20274;-66
2023/12/04 04:34:53;;;;;;;2.20;2.10;;;18.80;37.30;;;;;;5051345;28;20521;-67
2023/12/04 04:37:19;;;;;;;1.93;1.83;;;18.80;37.30;;;;;;5050469;28;20444;-66
2023/12/04 04:39:45;;;;;;;1.97;1.80;;;18.80;37.30;;;;;;5054007;28;20229;-67
2023/12/04 04:42:11;;;;;;;2.17;1.97;;;18.80;38.10;;;;;;5046820;28;20449;-66
2023/12/04 04:44:36;;;;;;;2.43;2.33;;;18.80;37.40;;;;;;5028905;28;20220;-66
2023/12/04 04:47:02;;;;;;;2.00;1.90;;;18.80;37.40;;;;;;5061162;28;20239;-66
2023/12/04 04:49:28;;;;;;;1.70;1.60;;;18.80;37.40;;;;;;5047587;28;20221;-66
2023/12/04 04:51:54;;;;;;;2.20;2.00;;;18.80;37.30;;;;;;5042360;28;20346;-66
2023/12/04 04:54:20;;;;;;;2.10;2.00;;;18.80;37.20;;;;;;5046352;28;20228;-66
2023/12/04 04:56:45;;;;;;;2.30;2.20;;;18.90;37.30;;;;;;5041545;28;20433;-65
2023/12/04 04:59:11;;;;;;;1.80;1.70;;;18.80;37.20;;;;;;5052558;28;20225;-66
2023/12/04 05:01:36;;;;;;;2.30;2.10;;;18.80;37.20;;;;;;5031895;28;20229;-66
2023/12/04 05:04:02;;;;;;;2.33;2.23;;;18.80;37.20;;;;;;5068964;28;20358;-66
2023/12/04 05:06:28;;;;;;;1.93;1.83;;;18.80;37.20;;;;;;5029910;28;20237;-67
2023/12/04 05:08:54;;;;;;;1.90;1.80;;;18.90;37.20;;;;;;5050826;28;20453;-66
2023/12/04 05:11:19;;;;;;;2.00;1.90;;;18.90;37.30;;;;;;5065955;28;20308;-67
2023/12/04 05:13:45;;;;;;;2.00;1.90;;;18.90;37.30;;;;;;5050465;28;20308;-65
2023/12/04 05:16:11;;;;;;;2.00;1.90;;;18.80;37.20;;;;;;5068871;28;20223;-65
2023/12/04 05:18:38;;;;;;;2.00;1.90;;;18.90;37.20;;;;;;5069183;28;20259;-64
2023/12/04 05:21:08;;;;;;;1.93;1.83;;;18.90;37.20;;;;;;5070023;28;20221;-65
2023/12/04 05:23:34;;;;;;;1.87;1.77;;;18.90;37.20;;;;;;5060861;28;21394;-66
2023/12/04 05:25:59;;;;;;;1.80;1.70;;;18.90;37.10;;;;;;4997522;28;20588;-66
2023/12/04 05:28:25;;;;;;;2.13;2.03;;;18.90;37.10;;;;;;5054671;28;20232;-67
2023/12/04 05:30:51;;;;;;;2.43;2.00;;;18.90;37.10;;;;;;5063510;28;20220;-63
2023/12/04 05:33:16;;;;;;;2.10;1.90;;;18.90;37.00;;;;;;5064424;28;20624;-65
2023/12/04 05:35:42;;;;;;;2.73;1.87;;;18.90;37.00;;;;;;5067874;28;20505;-65
2023/12/04 05:38:08;;;;;;;2.30;2.20;;;18.90;37.00;;;;;;5046507;28;20236;-65
2023/12/04 05:40:34;;;;;;;1.90;1.80;;;18.90;37.00;;;;;;5023450;28;20225;-65
2023/12/04 05:42:59;;;;;;;2.30;1.63;;;18.90;37.00;;;;;;5060727;28;21187;-65
2023/12/04 05:45:25;;;;;;;1.87;1.77;;;18.90;37.00;;;;;;5030302;28;20386;-66
2023/12/04 05:47:50;;;;;;;2.20;2.10;;;19.00;37.10;;;;;;5052591;28;20998;-66
2023/12/04 05:50:16;;;;;;;2.00;1.90;;;18.90;37.00;;;;;;5065941;28;20217;-66
2023/12/04 05:52:41;;;;;;;2.57;2.20;;;18.90;37.00;;;;;;5067577;28;20338;-67
2023/12/04 05:55:08;;;;;;;2.07;1.97;;;18.90;37.00;;;;;;5069035;28;20246;-66
2023/12/04 05:57:33;;;;;;;2.37;2.17;;;18.90;37.00;;;;;;5056529;28;20216;-66
2023/12/04 05:59:59;;;;;;;1.70;1.60;;;18.90;37.00;;;;;;5060187;28;20442;-67
2023/12/04 06:02:25;;;;;;;2.33;2.20;;;19.00;37.10;;;;;;5061811;28;20785;-66
2023/12/04 06:04:50;;;;;;;1.87;1.77;;;19.00;37.00;;;;;;5057355;28;20233;-67
2023/12/04 06:07:16;;;;;;;1.73;1.63;;;18.90;36.90;;;;;;5064011;28;20231;-66
2023/12/04 06:09:42;;;;;;;2.23;1.90;;;19.00;37.00;;;;;;5065531;28;20417;-65
2023/12/04 06:12:08;;;;;;;2.20;2.00;;;18.90;36.90;;;;;;5052767;27;20428;-69
2023/12/04 06:14:34;;;;;;;2.13;2.03;;;18.90;36.90;;;;;;5059478;28;20233;-66
2023/12/04 06:17:01;;;;;;;1.77;1.67;;;18.90;36.90;;;;;;5058593;28;20436;-66
2023/12/04 06:19:29;;;;;;;2.00;1.90;;;19.00;37.00;;;;;;5066384;28;20491;-66
2023/12/04 06:21:54;;;;;;;2.13;2.03;;;19.00;37.00;;;;;;5061010;28;20431;-66
2023/12/04 06:24:21;;;;;;;2.10;2.00;;;19.00;37.00;;;;;;5056993;28;20429;-66
2023/12/04 06:26:50;;;;;;;3.37;3.07;;;18.90;36.90;;;;;;5047250;28;20679;-69
2023/12/04 06:29:16;;;;;;;3.20;2.90;;;18.90;36.70;;;;;;5065638;28;20992;-69
2023/12/04 06:31:42;;;;;;;1.87;1.77;;;19.00;36.70;;;;;;5059325;28;20462;-67
2023/12/04 06:34:08;;;;;;;2.30;2.20;;;19.00;36.70;;;;;;5070859;28;20595;-66
2023/12/04 06:36:38;;;;;;;2.03;1.90;;;19.00;36.70;;;;;;5070570;28;20437;-67
2023/12/04 06:39:11;;;;;;;1.70;1.60;;;19.00;36.70;;;;;;5064162;28;20229;-67
2023/12/04 06:41:38;;;;;;;2.17;1.97;;;19.00;36.80;;;;;;5068643;28;20467;-67
2023/12/04 06:44:03;;;;;;;2.00;1.90;;;19.00;36.80;;;;;;5066601;28;20432;-67
2023/12/04 06:46:31;;;;;;;2.17;2.07;;;19.00;36.90;;;;;;5063113;28;20461;-67
2023/12/04 06:48:59;;;;;;;2.03;1.90;;;19.00;36.90;;;;;;5060427;28;20221;-67
2023/12/04 06:51:25;;;;;;;1.83;1.73;;;19.00;36.90;;;;;;5051459;28;20483;-67
2023/12/04 06:53:50;;;;;;;1.93;1.83;;;19.00;36.90;;;;;;5046318;28;20457;-67
2023/12/04 06:56:16;;;;;;;3.53;2.20;;;19.00;36.90;;;;;;5057235;28;20308;-67
2023/12/04 06:58:41;;;;;;;2.40;2.20;;;18.90;36.90;;;;;;5060249;28;20303;-67
2023/12/04 07:01:07;;;;;;;2.23;2.03;;;19.00;37.00;;;;;;5058767;28;20229;-67
2023/12/04 07:03:33;;;;;;;1.73;1.63;;;18.90;37.00;;;;;;5058361;28;20210;-67
2023/12/04 07:05:58;;;;;;;2.10;2.00;;;18.90;36.90;;;;;;5050130;28;20319;-65
2023/12/04 07:08:24;;;;;;;3.40;2.40;;;19.00;37.00;;;;;;5035609;28;20296;-67
2023/12/04 07:10:50;;;;;;;1.77;1.67;;;19.00;37.00;;;;;;5057948;28;20803;-67
2023/12/04 07:13:16;;;;;;;2.00;1.90;;;18.90;36.90;;;;;;5058858;28;20425;-67
2023/12/04 07:15:41;;;;;;;2.53;2.33;;;18.90;37.00;;;;;;5055624;28;20232;-68
2023/12/04 07:18:07;;;;;;;2.57;2.37;;;19.00;37.00;;;;;;5057600;28;20334;-68
2023/12/04 07:20:32;;;;;;;2.73;2.53;;;19.00;37.00;;;;;;5050562;28;20240;-67
2023/12/04 07:22:58;;;;;;;2.30;2.10;;;18.90;36.90;;;;;;5041713;28;20224;-67
2023/12/04 07:25:24;;;;;;;2.47;1.90;;;18.90;37.00;;;;;;5047734;28;20687;-67
2023/12/04 07:27:50;;;;;;;1.90;1.80;;;18.90;36.90;;;;;;5058451;28;20248;-66
2023/12/04 07:30:16;;;;;;;2.67;2.00;;;18.90;37.00;;;;;;5049035;28;20278;-67
2023/12/04 07:32:41;;;;;;;1.80;1.70;;;18.90;37.00;;;;;;5059145;28;20668;-67
2023/12/04 07:35:07;;;;;;;2.03;1.93;;;18.90;37.00;;;;;;5058611;28;20303;-67
2023/12/04 07:37:33;;;;;;;1.93;1.83;;;18.90;37.00;;;;;;5054144;28;20304;-68
2023/12/04 07:39:59;;;;;;;2.27;2.07;;;18.90;37.00;;;;;;5052176;28;20471;-66
2023/12/04 07:42:24;;;;;;;2.27;1.70;;;18.90;37.00;;;;;;5050263;28;20224;-68
2023/12/04 07:44:50;;;;;;;2.37;2.27;;;19.00;37.10;;;;;;5056958;28;20346;-68
2023/12/04 07:47:16;;;;;;;2.50;2.40;;;18.90;37.00;;;;;;5053783;28;20745;-68
2023/12/04 07:49:43;;;;;;;2.03;1.93;;;18.90;37.00;;;;;;5058841;28;20346;-66
2023/12/04 07:52:11;;;;;;;2.50;1.80;;;18.90;37.00;;;;;;5071337;28;20848;-68
2023/12/04 07:54:36;;;;;;;2.17;2.07;;;18.90;37.00;;;;;;5078160;28;20488;-68
2023/12/04 07:57:02;;;;;;;2.40;2.30;;;18.90;37.00;;;;;;5063426;28;20473;-68
2023/12/04 07:59:28;;;;;;;1.80;1.70;;;18.90;37.00;;;;;;5070019;28;20700;-68
2023/12/04 08:01:53;;;;;;;2.03;1.93;;;19.00;37.10;;;;;;5071700;28;20274;-68
2023/12/04 08:04:19;;;;;;;2.03;1.93;;;18.90;37.00;;;;;;5076956;28;20216;-68
2023/12/04 08:06:45;;;;;;;1.90;1.80;;;18.90;37.00;;;;;;5068922;28;21233;-66
2023/12/04 08:09:11;;;;;;;2.70;2.50;;;18.90;37.00;;;;;;5055378;28;20669;-68
2023/12/04 08:11:36;;;;;;;1.70;1.60;;;18.90;37.00;;;;;;5073977;28;20212;-68
2023/12/04 08:14:03;;;;;;;2.00;1.90;;;18.90;37.00;;;;;;5068521;28;20949;-68
2023/12/04 08:16:29;;;;;;;1.90;1.80;;;18.90;37.00;;;;;;5054332;28;20488;-68
2023/12/04 08:18:55;;;;;;;2.20;2.00;;;18.90;37.00;;;;;;5072191;28;20417;-67
2023/12/04 08:21:21;;;;;;;3.03;2.03;;;18.90;37.00;;;;;;5056436;28;20541;-67
2023/12/04 08:23:46;;;;;;;2.17;2.07;;;18.90;37.10;;;;;;5075827;28;20447;-67
2023/12/04 08:26:12;;;;;;;2.00;1.90;;;18.90;37.00;;;;;;5071076;28;20268;-68
2023/12/04 08:28:41;;;;;;;1.80;1.70;;;18.90;37.00;;;;;;5078464;28;20229;-68
2023/12/04 08:31:08;;;;;;;2.00;1.90;;;18.90;37.10;;;;;;5069432;28;20229;-66
2023/12/04 08:33:34;;;;;;;2.47;2.27;;;18.90;37.10;;;;;;5067461;28;20412;-68
2023/12/04 08:36:00;;;;;;;1.80;1.70;;;18.90;37.00;;;;;;5070572;28;20848;-67
2023/12/04 08:38:26;;;;;;;1.93;1.83;;;18.90;37.00;;;;;;5070897;28;21091;-67
2023/12/04 08:40:53;;;;;;;2.20;2.10;;;18.90;37.10;;;;;;5070971;28;20702;-68
2023/12/04 08:43:18;;;;;;;2.30;2.10;;;18.90;37.00;;;;;;5058719;28;20258;-68
2023/12/04 08:45:47;;;;;;;1.67;1.57;;;18.90;37.10;;;;;;5066990;28;20458;-68
2023/12/04 08:48:13;;;;;;;2.10;2.00;;;18.90;37.90;;;;;;5071680;28;20244;-67
2023/12/04 08:50:39;;;;;;;1.97;1.87;;;18.90;37.10;;;;;;5072046;28;20615;-68
2023/12/04 08:53:04;;;;;;;1.83;1.73;;;18.90;37.00;;;;;;5053273;28;20244;-68
2023/12/04 08:55:30;;;;;;;2.07;1.97;;;18.90;37.10;;;;;;5054907;28;20425;-68
2023/12/04 08:57:56;;;;;;;2.30;2.10;;;18.90;37.10;;;;;;5057786;28;20246;-67
2023/12/04 09:00:21;;;;;;;2.10;2.00;;;18.90;37.10;;;;;;5055538;28;20221;-68
2023/12/04 09:02:48;;;;;;;2.13;2.03;;;18.90;37.20;;;;;;5054380;28;21084;-69
2023/12/04 09:05:14;;;;;;;2.17;2.07;;;18.90;37.10;;;;;;5054817;28;20253;-68
2023/12/04 09:07:40;;;;;;;1.90;1.80;;;18.90;37.10;;;;;;5057556;28;20490;-67
2023/12/04 09:10:06;;;;;;;2.03;1.93;;;18.90;37.10;;;;;;5057602;28;20224;-67
2023/12/04 09:12:31;;;;;;;1.80;1.70;;;18.90;37.10;;;;;;5055952;28;20225;-68
2023/12/04 09:14:57;;;;;;;1.87;1.77;;;18.90;37.90;;;;;;5059355;28;20929;-68
2023/12/04 09:17:22;;;;;;;2.03;1.93;;;18.90;37.10;;;;;;5069439;28;20646;-69
2023/12/04 09:19:48;;;;;;;2.33;2.23;;;18.90;37.10;;;;;;5077622;28;20235;-68
2023/12/04 09:22:14;;;;;;;1.83;1.73;;;18.90;37.10;;;;;;5075948;28;20212;-67
2023/12/04 09:24:39;;;;;;;2.33;2.13;;;18.90;37.10;;;;;;5077086;28;20231;-68
2023/12/04 09:27:06;;;;;;;1.70;1.60;;;18.90;37.10;;;;;;5040307;28;20306;-67
2023/12/04 09:29:33;;;;;;;2.00;1.90;;;18.90;37.20;;;;;;5051763;28;20256;-67
2023/12/04 09:31:59;;;;;;;2.20;2.10;;;18.90;37.10;;;;;;5055816;28;20441;-67
2023/12/04 09:34:25;;;;;;;2.00;1.90;;;18.90;37.30;;;;;;5064359;28;20444;-67
2023/12/04 09:36:50;;;;;;;1.93;1.83;;;18.90;37.10;;;;;;5057932;28;20671;-67
2023/12/04 09:39:16;;;;;;;2.00;1.90;;;18.90;37.10;;;;;;5052700;28;20252;-69
2023/12/04 09:41:43;;;;;;;2.17;2.07;;;18.90;37.10;;;;;;5059154;28;20218;-68
2023/12/04 09:44:09;;;;;;;2.10;2.00;;;18.90;37.20;;;;;;5063425;28;21032;-68
2023/12/04 09:46:35;;;;;;;1.93;1.83;;;18.90;37.10;;;;;;5057288;28;20454;-69
2023/12/04 09:49:02;;;;;;;2.33;1.80;;;18.90;37.10;;;;;;5056991;28;20233;-68
2023/12/04 09:51:28;;;;;;;1.90;1.80;;;18.90;37.20;;;;;;5061323;28;20486;-68
2023/12/04 09:53:57;;;;;;;1.70;1.60;;;18.90;37.10;;;;;;5060046;28;20414;-68
2023/12/04 09:56:23;;;;;;;1.90;1.80;;;18.90;37.10;;;;;;5066903;28;20435;-68
2023/12/04 09:58:57;;;;;;;2.13;2.03;;;18.90;37.10;;;;;;5061483;28;20425;-69
2023/12/04 10:01:23;;;;;;;2.53;2.33;;;18.90;37.10;;;;;;5078811;28;20529;-68
2023/12/04 10:03:50;;;;;;;2.10;2.00;;;18.90;37.10;;;;;;5064109;28;20552;-68
2023/12/04 10:06:17;;;;;;;1.90;1.80;;;18.90;37.20;;;;;;5056197;28;20962;-68
2023/12/04 10:08:44;;;;;;;1.90;1.80;;;18.90;37.20;;;;;;5044893;28;20902;-68
2023/12/04 10:11:10;;;;;;;2.10;1.90;;;18.90;37.10;;;;;;5066637;28;20435;-68
2023/12/04 10:13:36;;;;;;;2.47;1.90;;;18.90;37.20;;;;;;5056459;28;21013;-68
2023/12/04 10:16:02;;;;;;;1.90;1.80;;;18.90;37.10;;;;;;5069543;28;20221;-69
2023/12/04 10:18:30;;;;;;;2.10;2.00;;;18.90;37.20;;;;;;5060359;28;20387;-69
2023/12/04 10:20:56;;;;;;;1.90;1.80;;;18.90;37.20;;;;;;5065376;28;20652;-69
2023/12/04 10:23:22;;;;;;;2.00;1.90;;;18.90;37.20;;;;;;5079965;28;20534;-69
2023/12/04 10:25:51;;;;;;;2.17;2.00;;;18.90;37.20;;;;;;5080791;28;20519;-69
2023/12/04 10:28:18;;;;;;;1.90;1.80;;;18.90;37.20;;;;;;5080078;28;20455;-68
2023/12/04 10:30:45;;;;;;;2.37;2.17;;;18.90;37.20;;;;;;5049658;28;20447;-69
2023/12/04 10:33:12;;;;;;;2.10;1.90;;;18.90;37.30;;;;;;5062194;28;20441;-70
2023/12/04 10:35:38;;;;;;;1.93;1.83;;;18.90;37.20;;;;;;5063356;28;20964;-68
2023/12/04 10:38:05;;;;;;;2.27;2.17;;;18.90;37.20;;;;;;5070180;28;20565;-67
2023/12/04 10:40:32;;;;;;;1.90;1.80;;;18.90;37.20;;;;;;5057840;28;20984;-68
2023/12/04 10:43:17;;;;;;;2.23;2.13;;;18.90;37.20;;;;;;5060680;28;20446;-67
2023/12/04 10:45:45;;;;;;;2.00;1.90;;;18.90;37.20;;;;;;5056196;28;20495;-70
2023/12/04 10:48:11;;;;;;;2.00;1.90;;;18.90;37.20;;;;;;5063298;28;20494;-69
2023/12/04 10:50:38;;;;;;;2.20;2.10;;;18.90;37.20;;;;;;5046421;28;20818;-69
2023/12/04 10:53:09;;;;;;;1.90;1.80;;;18.90;37.20;;;;;;5066257;28;20423;-69
2023/12/04 10:55:34;;;;;;;2.07;1.97;;;18.90;37.20;;;;;;5079557;28;20453;-67
2023/12/04 10:58:05;;;;;;;2.00;1.90;;;18.90;37.20;;;;;;5072120;28;20437;-68
2023/12/04 11:00:33;;;;;;;2.40;2.30;;;18.90;37.20;;;;;;5073334;28;20221;-69
2023/12/04 11:03:23;;;;;;;2.20;2.00;;;18.80;37.20;;;;;;5072482;28;20924;-68
2023/12/04 11:05:55;;;;;;;1.80;1.70;;;18.90;37.20;;;;;;5057530;28;20543;-69
2023/12/04 11:08:22;;;;;;;1.60;1.50;;;18.90;37.20;;;;;;5056383;28;20457;-68
2023/12/04 11:10:59;;;;;;;1.80;1.70;;;18.90;37.20;;;;;;5055750;28;20448;-68
2023/12/04 11:13:29;;;;;;;2.37;2.27;;;18.90;37.20;;;;;;5065518;28;20532;-67
2023/12/04 11:16:00;;;;;;;1.83;1.73;;;18.80;37.10;;;;;;5072710;28;20488;-69
2023/12/04 11:18:31;;;;;;;2.00;1.90;;;18.80;37.20;;;;;;5072394;28;20503;-68
2023/12/04 11:21:07;;;;;;;1.90;1.80;;;18.80;37.20;;;;;;5073475;28;20453;-69
2023/12/04 11:23:34;;;;;;;2.30;2.20;;;18.90;37.20;;;;;;5078266;28;20507;-67
2023/12/04 11:26:01;;;;;;;1.60;1.50;;;18.90;37.30;;;;;;5068314;28;20469;-69
2023/12/04 11:28:28;;;;;;;1.83;1.73;;;18.90;37.30;;;;;;5073016;28;20456;-69
2023/12/04 11:30:54;;;;;;;1.90;1.70;;;18.90;37.30;;;;;;5079474;28;20449;-69
2023/12/04 11:33:20;;;;;;;2.30;2.20;;;18.90;37.20;;;;;;5062297;28;20981;-68
2023/12/04 11:35:45;;;;;;;1.97;1.87;;;18.80;37.20;;;;;;5062240;28;20454;-67
2023/12/04 11:38:15;;;;;;;1.90;1.80;;;18.90;37.30;;;;;;5056119;28;20495;-69
2023/12/04 11:40:42;;;;;;;1.80;1.70;;;18.90;37.20;;;;;;5068992;28;20224;-67
2023/12/04 11:43:27;;;;;;;2.00;1.80;;;18.90;37.20;;;;;;5078964;28;20428;-68
2023/12/04 11:45:53;;;;;;;2.07;1.97;;;18.80;37.10;;;;;;5072635;28;20577;-69
2023/12/04 11:48:25;;;;;;;2.00;1.90;;;18.80;37.20;;;;;;5042111;28;20450;-69
2023/12/04 11:50:51;;;;;;;2.00;1.90;;;18.80;37.20;;;;;;5071707;28;20439;-68
2023/12/04 11:53:16;;;;;;;1.50;1.40;;;18.80;37.20;;;;;;5076748;28;20424;-69
2023/12/04 11:55:42;;;;;;;1.60;1.50;;;18.80;37.20;;;;;;5077292;28;20216;-69
2023/12/04 11:58:11;;;;;;;1.90;1.80;;;18.90;37.20;;;;;;5078368;28;20233;-69
2023/12/04 12:00:38;;;;;;;2.30;2.20;;;18.80;37.20;;;;;;5053974;28;20586;-68
2023/12/04 12:03:09;;;;;;;1.80;1.70;;;18.80;37.20;;;;;;5057520;28;20469;-67
2023/12/04 12:05:35;;;;;;;1.70;1.60;;;18.80;37.20;;;;;;5069069;28;20478;-67
2023/12/04 12:08:05;;;;;;;2.40;2.20;;;18.80;37.20;;;;;;5043000;28;20468;-69
2023/12/04 12:10:32;;;;;;;1.70;1.60;;;18.80;37.10;;;;;;5058683;28;21034;-69
2023/12/04 12:12:58;;;;;;;1.87;1.77;;;18.80;37.20;;;;;;5050945;28;20449;-67
2023/12/04 12:15:24;;;;;;;1.83;1.73;;;18.80;37.20;;;;;;5060637;28;20530;-68
2023/12/04 12:17:51;;;;;;;1.80;1.70;;;18.80;37.20;;;;;;5057844;28;20976;-69
2023/12/04 12:20:17;;;;;;;1.80;1.70;;;18.80;37.20;;;;;;5043630;28;20247;-68
2023/12/04 12:22:46;;;;;;;1.80;1.70;;;18.80;37.20;;;;;;5060392;28;20951;-67
2023/12/04 12:25:12;;;;;;;1.83;1.73;;;18.80;37.10;;;;;;5055390;28;20237;-69
2023/12/04 12:27:38;;;;;;;2.27;2.07;;;18.80;37.20;;;;;;5059515;28;20926;-68
2023/12/04 12:30:04;;;;;;;2.07;1.97;;;18.80;37.20;;;;;;5065251;28;20312;-67
2023/12/04 12:32:34;;;;;;;2.13;2.03;;;18.80;37.20;;;;;;5053304;28;20435;-70
2023/12/04 12:34:59;;;;;;;2.00;1.90;;;18.80;37.20;;;;;;5078049;28;20412;-69
2023/12/04 12:37:25;;;;;;;1.90;1.80;;;18.80;37.20;;;;;;5076963;28;20949;-69
2023/12/04 12:39:51;;;;;;;2.00;1.90;;;18.80;37.20;;;;;;5078691;28;20683;-69
2023/12/04 12:42:30;;;;;;;1.70;1.60;;;18.80;37.20;;;;;;5075941;28;20269;-70